createdAt,value
2023-01-09T00:01:56.848Z,101104.19
2023-01-09T00:04:27.880Z,101107.34
2023-01-09T00:06:58.663Z,101128.94
2023-01-09T00:09:29.461Z,101127.06
2023-01-09T00:12:00.802Z,101131.41
2023-01-09T00:14:31.449Z,101129.81
2023-01-09T00:17:02.264Z,101137.72
2023-01-09T00:19:32.883Z,101145.59
2023-01-09T00:22:04.115Z,101148.69
2023-01-09T00:24:34.987Z,101153.69
2023-01-09T00:27:05.985Z,101159.53
2023-01-09T00:29:36.596Z,101161.41
2023-01-09T00:32:11.782Z,101175.53
2023-01-09T00:34:44.509Z,101178.03
2023-01-09T00:37:15.432Z,101177.38
2023-01-09T00:39:46.434Z,101177.00
2023-01-09T00:42:20.438Z,101174.28
2023-01-09T00:44:59.564Z,101169.72
2023-01-09T00:47:33.121Z,101173.91
2023-01-09T00:50:07.102Z,101172.25
2023-01-09T00:52:42.686Z,101182.63
2023-01-09T00:55:14.776Z,101187.53
2023-01-09T00:57:45.596Z,101187.09
2023-01-09T01:00:17.322Z,101191.28
2023-01-09T01:02:48.181Z,101191.28
2023-01-09T01:05:37.026Z,101195.44
2023-01-09T01:08:17.437Z,101205.00
2023-01-09T01:10:49.163Z,101199.22
2023-01-09T01:13:20.064Z,101202.56
2023-01-09T01:15:50.759Z,101203.19
2023-01-09T01:18:21.760Z,101210.91
2023-01-09T01:20:52.868Z,101210.72
2023-01-09T01:23:23.504Z,101215.94
2023-01-09T01:25:54.318Z,101212.22
2023-01-09T01:28:25.064Z,101207.47
2023-01-09T01:30:55.768Z,101209.13
2023-01-09T01:33:26.983Z,101211.41
2023-01-09T01:36:07.934Z,101209.38
2023-01-09T01:38:39.053Z,101212.72
2023-01-09T01:41:09.673Z,101216.03
2023-01-09T01:43:54.059Z,101218.53
2023-01-09T01:46:25.335Z,101221.03
2023-01-09T01:49:14.304Z,101211.09
2023-01-09T01:51:47.247Z,101218.97
2023-01-09T01:54:23.832Z,101218.97
2023-01-09T01:56:58.450Z,101224.19
2023-01-09T01:59:36.850Z,101229.38
2023-01-09T02:02:07.995Z,101223.97
2023-01-09T02:04:42.780Z,101221.91
2023-01-09T02:07:14.123Z,101228.13
2023-01-09T02:09:46.202Z,101235.22
2023-01-09T02:12:18.742Z,101235.84
2023-01-09T02:14:50.673Z,101232.97
2023-01-09T02:17:27.555Z,101239.19
2023-01-09T02:20:08.597Z,101237.31
2023-01-09T02:22:51.747Z,101236.31
2023-01-09T02:25:25.566Z,101246.06
2023-01-09T02:27:59.404Z,101244.00
2023-01-09T02:30:35.829Z,101240.66
2023-01-09T02:33:09.229Z,101254.41
2023-01-09T02:35:46.508Z,101250.66
2023-01-09T02:38:26.387Z,101248.59
2023-01-09T02:41:15.695Z,101256.50
2023-01-09T02:43:47.255Z,101255.25
2023-01-09T02:46:23.416Z,101253.44
2023-01-09T02:48:54.991Z,101260.28
2023-01-09T02:51:37.623Z,101261.97
2023-01-09T02:54:24.198Z,101266.13
2023-01-09T02:57:04.411Z,101248.69
2023-01-09T02:59:38.730Z,101244.94
2023-01-09T03:02:25.086Z,101254.72
2023-01-09T03:05:02.029Z,101240.84
2023-01-09T03:07:36.569Z,101245.88
2023-01-09T03:10:25.318Z,101242.13
2023-01-09T03:12:58.856Z,101237.97
2023-01-09T03:15:32.578Z,101242.16
2023-01-09T03:18:04.077Z,101240.31
2023-01-09T03:20:35.211Z,101232.81
2023-01-09T03:23:07.423Z,101242.59
2023-01-09T03:25:38.161Z,101227.63
2023-01-09T03:28:10.622Z,101225.59
2023-01-09T03:30:41.190Z,101223.53
2023-01-09T03:33:12.142Z,101232.22
2023-01-09T03:35:42.732Z,101217.72
2023-01-09T03:38:13.681Z,101214.78
2023-01-09T03:40:47.575Z,101213.56
2023-01-09T03:43:18.235Z,101213.56
2023-01-09T03:45:50.218Z,101207.75
2023-01-09T03:48:21.345Z,101211.09
2023-01-09T03:50:52.673Z,101209.03
2023-01-09T03:53:24.815Z,101199.88
2023-01-09T03:55:57.145Z,101197.81
2023-01-09T03:58:29.169Z,101199.44
2023-01-09T04:01:05.283Z,101188.66
2023-01-09T04:03:36.133Z,101193.63
2023-01-09T04:06:06.979Z,101189.91
2023-01-09T04:08:37.683Z,101186.81
2023-01-09T04:11:08.357Z,101188.47
2023-01-09T04:13:39.193Z,101182.00
2023-01-09T04:16:10.375Z,101180.75
2023-01-09T04:18:41.121Z,101177.22
2023-01-09T04:21:11.841Z,101172.47
2023-01-09T04:23:42.752Z,101180.38
2023-01-09T04:26:13.784Z,101161.28
2023-01-09T04:28:44.680Z,101166.25
2023-01-09T04:31:15.670Z,101161.50
2023-01-09T04:33:46.999Z,101154.03
2023-01-09T04:36:17.929Z,101154.63
2023-01-09T04:38:48.730Z,101155.25
2023-01-09T04:41:39.382Z,101146.94
2023-01-09T04:44:10.053Z,101142.16
2023-01-09T04:46:40.837Z,101134.66
2023-01-09T04:49:11.475Z,101133.63
2023-01-09T04:51:42.178Z,101128.03
2023-01-09T04:54:13.111Z,101128.66
2023-01-09T04:56:43.985Z,101117.84
2023-01-09T04:59:14.691Z,101118.47
2023-01-09T05:01:45.501Z,101103.91
2023-01-09T05:04:16.443Z,101100.13
2023-01-09T05:06:47.504Z,101097.44
2023-01-09T05:09:18.208Z,101091.00
2023-01-09T05:11:48.977Z,101087.25
2023-01-09T05:14:20.163Z,101078.09
2023-01-09T05:16:50.939Z,101073.53
2023-01-09T05:19:22.590Z,101073.31
2023-01-09T05:21:53.650Z,101063.94
2023-01-09T05:24:24.349Z,101055.81
2023-01-09T05:26:55.003Z,101041.06
2023-01-09T05:29:25.603Z,101039.41
2023-01-09T05:31:56.389Z,101036.28
2023-01-09T05:34:27.389Z,101026.06
2023-01-09T05:36:58.073Z,101023.16
2023-01-09T05:39:28.704Z,101010.44
2023-01-09T05:41:59.430Z,101007.75
2023-01-09T05:44:30.165Z,101003.78
2023-01-09T05:47:02.736Z,100993.78
2023-01-09T05:49:33.647Z,100987.34
2023-01-09T05:52:04.660Z,100979.84
2023-01-09T05:54:35.219Z,100973.41
2023-01-09T05:57:05.931Z,100972.34
2023-01-09T05:59:36.614Z,100960.47
2023-01-09T06:02:07.351Z,100957.56
2023-01-09T06:04:38.281Z,100948.19
2023-01-09T06:07:09.143Z,100953.38
2023-01-09T06:09:40.072Z,100953.16
2023-01-09T06:12:10.752Z,100961.94
2023-01-09T06:14:41.557Z,100947.38
2023-01-09T06:17:13.293Z,100952.34
2023-01-09T06:19:43.831Z,100943.19
2023-01-09T06:22:14.647Z,100936.72
2023-01-09T06:24:45.576Z,100938.38
2023-01-09T06:27:16.535Z,100936.28
2023-01-09T06:29:47.557Z,100935.25
2023-01-09T06:32:18.439Z,100922.34
2023-01-09T06:34:49.051Z,100921.28
2023-01-09T06:37:20.016Z,100915.66
2023-01-09T06:39:50.951Z,100909.19
2023-01-09T06:42:21.938Z,100905.22
2023-01-09T06:44:53.591Z,100904.19
2023-01-09T06:47:25.101Z,100887.34
2023-01-09T06:49:56.146Z,100890.22
2023-01-09T06:52:26.896Z,100891.88
2023-01-09T06:54:57.501Z,100882.72
2023-01-09T06:57:28.970Z,100885.19
2023-01-09T06:59:59.800Z,100888.28
2023-01-09T07:02:30.503Z,100875.59
2023-01-09T07:05:01.130Z,100878.09
2023-01-09T07:07:32.061Z,100866.81
2023-01-09T07:10:02.678Z,100870.13
2023-01-09T07:12:33.464Z,100863.66
2023-01-09T07:15:04.316Z,100862.63
2023-01-09T07:17:35.088Z,100850.53
2023-01-09T07:20:05.972Z,100853.00
2023-01-09T07:22:36.751Z,100854.69
2023-01-09T07:25:07.622Z,100847.97
2023-01-09T07:27:38.351Z,100853.19
2023-01-09T07:30:09.549Z,100846.72
2023-01-09T07:32:41.929Z,100836.72
2023-01-09T07:35:12.783Z,100839.19
2023-01-09T07:37:43.595Z,100835.44
2023-01-09T07:40:14.502Z,100827.94
2023-01-09T07:42:45.370Z,100819.81
2023-01-09T07:45:16.100Z,100818.78
2023-01-09T07:47:48.030Z,100822.09
2023-01-09T07:50:18.701Z,100823.78
2023-01-09T07:52:50.084Z,100816.22
2023-01-09T07:55:20.744Z,100807.06
2023-01-09T07:57:52.016Z,100811.66
2023-01-09T08:00:22.726Z,100814.13
2023-01-09T08:02:54.952Z,100821.19
2023-01-09T08:05:26.081Z,100816.41
2023-01-09T08:07:56.743Z,100818.06
2023-01-09T08:10:27.431Z,100819.94
2023-01-09T08:12:58.453Z,100820.78
2023-01-09T08:15:29.233Z,100819.72
2023-01-09T08:18:00.138Z,100812.41
2023-01-09T08:20:31.236Z,100820.09
2023-01-09T08:23:01.941Z,100824.69
2023-01-09T08:25:32.752Z,100825.53
2023-01-09T08:28:03.418Z,100818.22
2023-01-09T08:30:34.176Z,100836.16
2023-01-09T08:33:04.894Z,100841.56
2023-01-09T08:35:36.180Z,100848.00
2023-01-09T08:38:06.839Z,100864.25
2023-01-09T08:40:37.530Z,100877.81
2023-01-09T08:43:26.286Z,100884.09
2023-01-09T08:46:15.557Z,100899.47
2023-01-09T08:48:46.430Z,100891.59
2023-01-09T08:51:17.276Z,100893.47
2023-01-09T08:53:48.126Z,100891.59
2023-01-09T08:56:19.151Z,100900.78
2023-01-09T08:58:49.754Z,100903.69
2023-01-09T09:01:20.466Z,100900.38
2023-01-09T09:03:51.154Z,100911.19
2023-01-09T09:06:21.868Z,100903.53
2023-01-09T09:08:52.443Z,100901.25
2023-01-09T09:11:23.113Z,100902.50
2023-01-09T09:13:53.756Z,100903.75
2023-01-09T09:16:24.574Z,100902.09
2023-01-09T09:18:55.689Z,100908.53
2023-01-09T09:21:26.453Z,100901.72
2023-01-09T09:23:59.329Z,100906.28
2023-01-09T09:26:30.432Z,100899.16
2023-01-09T09:29:01.052Z,100898.34
2023-01-09T09:31:32.222Z,100910.50
2023-01-09T09:34:02.936Z,100900.53
2023-01-09T09:36:34.030Z,100910.13
2023-01-09T09:39:05.102Z,100914.78
2023-01-09T09:42:00.105Z,100908.13
2023-01-09T09:44:53.903Z,100922.69
2023-01-09T09:47:30.763Z,100925.22
2023-01-09T09:50:08.613Z,100920.25
2023-01-09T09:52:45.086Z,100924.59
2023-01-09T09:55:39.988Z,100920.69
2023-01-09T09:58:23.691Z,100924.41
2023-01-09T10:00:55.316Z,100918.41
2023-01-09T10:03:33.910Z,100922.75
2023-01-09T10:06:08.026Z,100921.94
2023-01-09T10:08:47.490Z,100917.78
2023-01-09T10:11:22.700Z,100924.66
2023-01-09T10:14:22.838Z,100928.00
2023-01-09T10:17:00.788Z,100930.69
2023-01-09T10:19:47.142Z,100931.97
2023-01-09T10:22:17.823Z,100938.63
2023-01-09T10:24:57.519Z,100940.31
2023-01-09T10:27:46.278Z,100941.94
2023-01-09T10:30:26.028Z,100946.53
2023-01-09T10:32:57.735Z,100952.34
2023-01-09T10:35:47.961Z,100956.94
2023-01-09T10:38:25.259Z,100961.50
2023-01-09T10:41:19.429Z,100963.16
2023-01-09T10:43:53.285Z,100958.19
2023-01-09T10:46:33.127Z,100968.56
2023-01-09T10:49:07.197Z,100962.53
2023-01-09T10:51:46.250Z,100962.78
2023-01-09T10:54:20.319Z,100962.16
2023-01-09T10:57:23.073Z,100970.25
2023-01-09T10:59:53.726Z,100957.38
2023-01-09T11:02:29.675Z,100955.88
2023-01-09T11:05:00.367Z,100956.53
2023-01-09T11:07:39.768Z,100956.31
2023-01-09T11:10:13.283Z,100944.47
2023-01-09T11:12:44.705Z,100952.34
2023-01-09T11:15:18.139Z,100957.75
2023-01-09T11:17:49.748Z,100959.44
2023-01-09T11:20:20.357Z,100954.84
2023-01-09T11:22:52.599Z,100961.09
2023-01-09T11:25:24.841Z,100958.38
2023-01-09T11:28:10.197Z,100955.66
2023-01-09T11:30:54.428Z,100960.03
2023-01-09T11:33:26.667Z,100963.78
2023-01-09T11:36:00.135Z,100968.97
2023-01-09T11:38:31.798Z,100968.16
2023-01-09T11:41:03.668Z,100973.56
2023-01-09T11:43:41.079Z,100973.56
2023-01-09T11:46:14.336Z,100982.72
2023-01-09T11:48:59.135Z,100985.44
2023-01-09T11:51:34.765Z,100994.63
2023-01-09T11:54:14.815Z,100996.47
2023-01-09T11:56:45.975Z,101006.47
2023-01-09T11:59:18.805Z,101013.56
2023-01-09T12:02:01.807Z,101011.88
2023-01-09T12:04:35.579Z,101013.56
2023-01-09T12:07:32.326Z,101017.28
2023-01-09T12:10:21.387Z,101027.91
2023-01-09T12:12:52.613Z,101039.56
2023-01-09T12:15:29.511Z,101029.78
2023-01-09T12:18:06.959Z,101043.53
2023-01-09T12:20:49.695Z,101044.56
2023-01-09T12:23:23.592Z,101051.84
2023-01-09T12:26:12.737Z,101060.56
2023-01-09T12:28:43.427Z,101057.47
2023-01-09T12:31:46.735Z,101059.34
2023-01-09T12:34:52.922Z,101069.94
2023-01-09T12:37:24.676Z,101070.56
2023-01-09T12:39:55.623Z,101075.78
2023-01-09T12:42:29.394Z,101079.75
2023-01-09T12:45:25.253Z,101087.00
2023-01-09T12:48:03.438Z,101084.72
2023-01-09T12:50:45.829Z,101087.63
2023-01-09T12:53:21.652Z,101092.00
2023-01-09T12:55:54.995Z,101102.41
2023-01-09T12:58:33.013Z,101105.53
2023-01-09T13:01:07.015Z,101117.38
2023-01-09T13:03:42.854Z,101113.84
2023-01-09T13:06:16.642Z,101125.13
2023-01-09T13:08:52.014Z,101128.41
2023-01-09T13:11:49.532Z,101129.66
2023-01-09T13:14:25.281Z,101138.00
2023-01-09T13:16:58.346Z,101133.63
2023-01-09T13:19:31.136Z,101137.19
2023-01-09T13:22:02.311Z,101144.25
2023-01-09T13:24:39.541Z,101146.13
2023-01-09T13:27:18.452Z,101154.66
2023-01-09T13:30:00.675Z,101147.78
2023-01-09T13:32:31.507Z,101158.19
2023-01-09T13:35:05.498Z,101147.56
2023-01-09T13:37:38.661Z,101158.63
2023-01-09T13:40:26.783Z,101163.59
2023-01-09T13:43:07.564Z,101162.16
2023-01-09T13:45:39.844Z,101169.22
2023-01-09T13:48:37.450Z,101162.97
2023-01-09T13:51:32.480Z,101167.56
2023-01-09T13:54:04.499Z,101165.91
2023-01-09T13:56:57.659Z,101166.72
2023-01-09T13:59:30.497Z,101163.59
2023-01-09T14:02:01.382Z,101166.72
2023-01-09T14:04:52.433Z,101165.47
2023-01-09T14:07:27.411Z,101156.91
2023-01-09T14:10:02.222Z,101157.06
2023-01-09T14:12:40.026Z,101169.09
2023-01-09T14:15:26.922Z,101168.25
2023-01-09T14:18:04.942Z,101167.63
2023-01-09T14:20:45.505Z,101169.47
2023-01-09T14:26:23.681Z,101169.41
2023-01-09T14:29:14.413Z,101166.91
2023-01-09T14:31:45.057Z,101166.81
2023-01-09T14:34:37.426Z,101164.31
2023-01-09T14:37:12.957Z,101165.94
2023-01-09T14:39:46.203Z,101155.31
2023-01-09T14:42:24.109Z,101167.53
2023-01-09T14:45:15.030Z,101161.88
2023-01-09T14:47:48.523Z,101167.03
2023-01-09T14:50:19.195Z,101156.63
2023-01-09T14:53:00.781Z,101157.03
2023-01-09T14:55:52.228Z,101148.31
2023-01-09T14:58:27.483Z,101144.94
2023-01-09T15:01:06.476Z,101129.97
2023-01-09T15:03:40.451Z,101141.13
2023-01-09T15:06:37.139Z,101141.53
2023-01-09T15:09:11.053Z,101140.91
2023-01-09T15:11:42.203Z,101146.66
2023-01-09T15:14:28.636Z,101142.72
2023-01-09T15:16:59.794Z,101146.81
2023-01-09T15:19:31.533Z,101143.50
2023-01-09T15:22:04.357Z,101154.44
2023-01-09T15:24:36.374Z,101147.16
2023-01-09T15:27:12.932Z,101143.25
2023-01-09T15:29:43.748Z,101142.22
2023-01-09T15:32:20.243Z,101141.59
2023-01-09T15:34:51.459Z,101135.94
2023-01-09T15:37:27.650Z,101140.06
2023-01-09T15:40:00.332Z,101127.59
2023-01-09T15:42:51.065Z,101121.97
2023-01-09T15:45:29.719Z,101130.84
2023-01-09T15:48:18.680Z,101123.31
2023-01-09T15:50:50.558Z,101122.88
2023-01-09T15:53:23.369Z,101121.59
2023-01-09T15:56:09.510Z,101117.59
2023-01-09T15:58:41.396Z,101112.34
2023-01-09T16:01:14.803Z,101120.41
2023-01-09T16:03:45.762Z,101118.28
2023-01-09T16:06:19.877Z,101120.16
2023-01-09T16:08:57.507Z,101122.19
2023-01-09T16:11:33.059Z,101122.19
2023-01-09T16:14:19.036Z,101118.94
2023-01-09T16:16:50.150Z,101120.03
2023-01-09T16:19:39.073Z,101120.13
2023-01-09T16:22:29.240Z,101122.88
2023-01-09T16:25:01.846Z,101122.91
2023-01-09T16:27:34.792Z,101123.81
2023-01-09T16:30:07.434Z,101124.25
2023-01-09T16:32:47.402Z,101119.91
2023-01-09T16:35:19.518Z,101124.00
2023-01-09T16:37:50.271Z,101125.22
2023-01-09T16:40:23.764Z,101122.09
2023-01-09T16:43:04.754Z,101117.28
2023-01-09T16:45:39.606Z,101127.44
2023-01-09T16:48:15.807Z,101124.94
2023-01-09T16:50:46.868Z,101119.97
2023-01-09T16:53:19.136Z,101120.44
2023-01-09T16:55:50.690Z,101124.41
2023-01-09T16:58:26.642Z,101123.81
2023-01-09T17:00:57.411Z,101122.22
2023-01-09T17:03:28.374Z,101119.75
2023-01-09T17:06:01.589Z,101119.75
2023-01-09T17:08:34.085Z,101119.50
2023-01-09T17:11:05.792Z,101115.53
2023-01-09T17:13:36.338Z,101115.91
2023-01-09T17:16:07.645Z,101110.91
2023-01-09T17:18:38.664Z,101112.34
2023-01-09T17:21:16.227Z,101112.09
2023-01-09T17:23:47.015Z,101099.66
2023-01-09T17:26:37.103Z,101095.91
2023-01-09T17:29:08.244Z,101102.56
2023-01-09T17:31:39.572Z,101095.78
2023-01-09T17:34:10.486Z,101096.03
2023-01-09T17:36:41.249Z,101092.94
2023-01-09T17:39:15.019Z,101095.03
2023-01-09T17:41:45.845Z,101089.19
2023-01-09T17:44:16.751Z,101088.19
2023-01-09T17:46:47.475Z,101085.25
2023-01-09T17:49:19.840Z,101085.00
2023-01-09T17:51:50.594Z,101079.16
2023-01-09T17:54:21.402Z,101073.31
2023-01-09T17:56:53.273Z,101072.31
2023-01-09T17:59:24.752Z,101070.22
2023-01-09T18:01:55.824Z,101066.13
2023-01-09T18:04:26.564Z,101067.38
2023-01-09T18:06:57.225Z,101063.94
2023-01-09T18:09:27.882Z,101054.41
2023-01-09T18:11:58.563Z,101049.66
2023-01-09T18:14:29.196Z,101054.56
2023-01-09T18:17:00.042Z,101041.72
2023-01-09T18:19:31.462Z,101046.22
2023-01-09T18:22:02.647Z,101039.56
2023-01-09T18:24:33.261Z,101041.34
2023-01-09T18:27:03.901Z,101038.66
2023-01-09T18:29:34.504Z,101031.22
2023-01-09T18:32:05.246Z,101034.16
2023-01-09T18:34:35.894Z,101037.47
2023-01-09T18:37:06.866Z,101035.03
2023-01-09T18:39:37.448Z,101029.22
2023-01-09T18:42:08.238Z,101021.38
2023-01-09T18:44:38.893Z,101017.69
2023-01-09T18:47:09.878Z,101024.31
2023-01-09T18:49:40.509Z,101014.28
2023-01-09T18:52:11.542Z,101011.38
2023-01-09T18:54:44.164Z,101012.78
2023-01-09T18:57:14.851Z,101016.44
2023-01-09T18:59:45.543Z,101009.22
2023-01-09T19:02:22.003Z,101010.88
2023-01-09T19:04:52.925Z,100997.56
2023-01-09T19:07:23.942Z,101000.13
2023-01-09T19:09:54.717Z,101008.47
2023-01-09T19:12:25.889Z,101006.00
2023-01-09T19:14:58.775Z,100995.66
2023-01-09T19:17:29.523Z,100991.72
2023-01-09T19:20:00.142Z,100992.34
2023-01-09T19:22:31.093Z,100989.19
2023-01-09T19:25:03.889Z,100998.91
2023-01-09T19:27:34.716Z,100994.13
2023-01-09T19:30:05.551Z,100991.81
2023-01-09T19:32:36.595Z,100997.22
2023-01-09T19:35:07.430Z,100995.97
2023-01-09T19:37:38.730Z,100981.91
2023-01-09T19:40:09.667Z,100977.78
2023-01-09T19:42:40.418Z,100975.31
2023-01-09T19:45:11.183Z,100974.06
2023-01-09T19:47:42.113Z,100974.53
2023-01-09T19:50:13.430Z,100971.19
2023-01-09T19:52:44.965Z,100969.09
2023-01-09T19:55:16.217Z,100969.06
2023-01-09T19:57:48.280Z,100970.69
2023-01-09T20:00:19.045Z,100964.00
2023-01-09T20:02:51.059Z,100962.34
2023-01-09T20:05:21.860Z,100962.38
2023-01-09T20:07:59.067Z,100950.59
2023-01-09T20:10:29.616Z,100953.53
2023-01-09T20:13:00.247Z,100956.00
2023-01-09T20:15:31.329Z,100951.25
2023-01-09T20:18:03.375Z,100948.78
2023-01-09T20:20:34.946Z,100937.19
2023-01-09T20:23:05.603Z,100950.03
2023-01-09T20:25:36.988Z,100940.03
2023-01-09T20:28:07.979Z,100939.16
2023-01-09T20:30:42.170Z,100941.63
2023-01-09T20:33:13.468Z,100945.34
2023-01-09T20:35:44.117Z,100949.50
2023-01-09T20:38:14.949Z,100952.00
2023-01-09T20:40:45.658Z,100957.00
2023-01-09T20:43:16.917Z,100961.78
2023-01-09T20:45:47.794Z,100969.88
2023-01-09T20:48:18.512Z,100974.06
2023-01-09T20:50:49.304Z,100979.03
2023-01-09T20:53:20.073Z,100978.66
2023-01-09T20:55:50.825Z,100979.03
2023-01-09T20:58:21.950Z,100984.44
2023-01-09T21:00:52.746Z,100980.47
2023-01-09T21:03:24.808Z,100977.72
2023-01-09T21:05:55.385Z,100979.34
2023-01-09T21:08:26.184Z,100983.50
2023-01-09T21:11:00.111Z,100981.41
2023-01-09T21:13:31.300Z,100983.91
2023-01-09T21:16:03.049Z,100982.69
2023-01-09T21:18:34.007Z,100989.13
2023-01-09T21:21:09.520Z,100982.69
2023-01-09T21:23:43.236Z,100987.69
2023-01-09T21:26:15.517Z,100991.47
2023-01-09T21:28:50.480Z,100983.19
2023-01-09T21:31:22.740Z,100983.56
2023-01-09T21:33:55.906Z,100986.44
2023-01-09T21:36:26.551Z,100994.28
2023-01-09T21:38:59.337Z,100991.28
2023-01-09T21:41:48.016Z,100995.00
2023-01-09T21:44:36.811Z,100992.31
2023-01-09T21:47:07.438Z,101000.38
2023-01-09T21:49:41.405Z,101002.06
2023-01-09T21:52:15.417Z,101011.16
2023-01-09T21:54:46.509Z,100999.16
2023-01-09T21:57:17.608Z,101008.28
2023-01-09T21:59:48.453Z,101006.25
2023-01-09T22:02:19.585Z,101004.66
2023-01-09T22:04:50.818Z,101000.13
2023-01-09T22:07:22.415Z,101004.69
2023-01-09T22:09:53.446Z,101003.44
2023-01-09T22:12:24.542Z,100998.63
2023-01-09T22:14:55.252Z,100998.72
2023-01-09T22:17:25.853Z,100989.38
2023-01-09T22:19:56.604Z,100992.09
2023-01-09T22:22:27.326Z,100993.75
2023-01-09T22:24:58.050Z,100991.03
2023-01-09T22:27:28.921Z,100995.41
2023-01-09T22:29:59.663Z,100999.97
2023-01-09T22:32:30.969Z,101007.03
2023-01-09T22:35:01.613Z,100999.13
2023-01-09T22:37:33.007Z,101002.88
2023-01-09T22:40:03.704Z,101005.06
2023-01-09T22:42:34.410Z,101009.22
2023-01-09T22:45:05.103Z,101008.75
2023-01-09T22:47:36.047Z,101011.16
2023-01-09T22:50:07.283Z,101015.31
2023-01-09T22:52:37.997Z,101023.56
2023-01-09T22:55:10.202Z,101020.88
2023-01-09T22:57:41.082Z,101030.22
2023-01-09T23:00:12.532Z,101022.50
2023-01-09T23:02:43.241Z,101032.44
2023-01-09T23:05:13.991Z,101042.81
2023-01-09T23:07:45.032Z,101032.25
2023-01-09T23:10:15.968Z,101036.63
2023-01-09T23:12:49.867Z,101041.59
2023-01-09T23:15:20.445Z,101042.88
2023-01-09T23:17:51.227Z,101050.13
2023-01-09T23:20:21.821Z,101049.94
2023-01-09T23:22:52.516Z,101049.56
2023-01-09T23:25:23.417Z,101051.03
2023-01-09T23:27:54.115Z,101052.09
2023-01-09T23:30:24.855Z,101052.28
2023-01-09T23:32:55.452Z,101064.53
2023-01-09T23:35:26.133Z,101063.75
2023-01-09T23:37:57.218Z,101077.88
2023-01-09T23:40:28.161Z,101076.66
2023-01-09T23:43:11.758Z,101076.47
2023-01-09T23:45:42.433Z,101087.47
2023-01-09T23:48:14.264Z,101081.69
2023-01-09T23:50:46.256Z,101085.88
2023-01-09T23:53:17.114Z,101092.53
2023-01-09T23:55:48.004Z,101103.13
2023-01-09T23:58:18.799Z,101107.50
